Time;durP1;ratioP1;P1;durP2;ratioP2;P2;SDS_P1;SDS_P2;PMS_P1;PMS_P2;Temp;Humidity;BMP_temperature;BMP_pressure;BME280_temperature;BME280_humidity;BME280_pressure;Samples;Min_cycle;Max_cycle;Signal;HPM_P1;HPM_P2
2023/10/23 00:02:03;;;;;;;;;;;;;;;10.66;99.52;100416.13;5095688;28;19942;-66
2023/10/23 00:05:06;;;;;;;;;;;;;;;10.59;99.24;100420.00;5095651;28;19939;-66
2023/10/23 00:08:09;;;;;;;;;;;;;;;10.59;99.00;100429.59;5095484;28;19963;-66
2023/10/23 00:11:20;;;;;;;;;;;;;;;10.59;99.22;100421.75;5095324;28;20295;-66
2023/10/23 00:14:23;;;;;;;;;;;;;;;10.58;98.92;100427.91;5095455;28;20260;-66
2023/10/23 00:17:26;;;;;;;;;;;;;;;10.54;97.84;100418.53;5095279;28;19923;-66
2023/10/23 00:20:29;;;;;;;;;;;;;;;10.52;97.46;100428.22;5095185;28;20076;-66
2023/10/23 00:23:32;;;;;;;;;;;;;;;10.48;97.52;100428.38;5094883;28;20345;-66
2023/10/23 00:26:35;;;;;;;;;;;;;;;10.44;97.62;100432.09;5095070;28;19923;-66
2023/10/23 00:29:37;;;;;;;;;;;;;;;10.46;97.74;100429.41;5094787;28;19997;-66
2023/10/23 00:32:40;;;;;;;;;;;;;;;10.47;97.65;100437.16;5095290;28;19995;-66
2023/10/23 00:35:43;;;;;;;;;;;;;;;10.46;96.77;100440.72;5094897;28;19923;-66
2023/10/23 00:38:46;;;;;;;;;;;;;;;10.53;95.96;100440.38;5094865;28;20292;-66
2023/10/23 00:41:49;;;;;;;;;;;;;;;10.41;96.34;100437.50;5094891;28;19961;-66
2023/10/23 00:44:52;;;;;;;;;;;;;;;10.44;96.47;100432.09;5095162;28;19926;-66
2023/10/23 00:47:55;;;;;;;;;;;;;;;10.43;96.74;100442.63;5094669;28;19923;-66
2023/10/23 00:51:00;;;;;;;;;;;;;;;10.31;97.59;100438.91;5094533;28;20442;-66
2023/10/23 00:54:05;;;;;;;;;;;;;;;10.42;97.44;100444.41;5093745;28;20007;-65
2023/10/23 00:57:08;;;;;;;;;;;;;;;10.39;97.20;100443.72;5094326;28;19923;-65
2023/10/23 01:00:12;;;;;;;;;;;;;;;10.32;97.57;100442.38;5094450;28;19974;-66
2023/10/23 01:03:15;;;;;;;;;;;;;;;10.32;97.98;100445.81;5094379;28;19962;-66
2023/10/23 01:06:18;;;;;;;;;;;;;;;10.26;97.97;100443.53;5094359;28;19923;-66
2023/10/23 01:09:22;;;;;;;;;;;;;;;10.23;97.99;100443.66;5093400;28;19958;-66
2023/10/23 01:12:25;;;;;;;;;;;;;;;10.11;98.55;100436.44;5094097;28;19922;-66
2023/10/23 01:15:28;;;;;;;;;;;;;;;10.14;98.56;100433.66;5094012;28;19923;-66
2023/10/23 01:18:31;;;;;;;;;;;;;;;10.02;98.03;100443.84;5094089;28;19922;-66
2023/10/23 01:21:34;;;;;;;;;;;;;;;10.01;97.69;100454.34;5094054;28;19974;-66
2023/10/23 01:24:39;;;;;;;;;;;;;;;9.95;97.68;100450.28;5093136;28;19939;-66
2023/10/23 01:27:42;;;;;;;;;;;;;;;9.90;97.90;100444.47;5093748;28;20341;-67
2023/10/23 01:30:45;;;;;;;;;;;;;;;9.90;97.61;100447.06;5093688;28;19926;-66
2023/10/23 01:33:48;;;;;;;;;;;;;;;9.82;97.98;100444.00;5093305;28;19985;-66
2023/10/23 01:36:51;;;;;;;;;;;;;;;9.90;97.74;100447.06;5093825;28;19966;-66
2023/10/23 01:39:54;;;;;;;;;;;;;;;9.86;97.08;100448.16;5093608;28;19927;-66
2023/10/23 01:42:57;;;;;;;;;;;;;;;9.90;97.06;100454.91;5093581;28;19989;-66
2023/10/23 01:46:00;;;;;;;;;;;;;;;9.84;97.31;100452.59;5080891;28;19930;-66
2023/10/23 01:49:03;;;;;;;;;;;;;;;9.92;97.24;100450.47;5093859;28;19970;-66
2023/10/23 01:52:06;;;;;;;;;;;;;;;9.84;98.24;100457.00;5093946;28;19973;-66
2023/10/23 01:55:09;;;;;;;;;;;;;;;9.85;98.72;100456.06;5092634;28;19923;-66
2023/10/23 01:58:12;;;;;;;;;;;;;;;9.90;97.66;100457.53;5093404;28;20325;-66
2023/10/23 02:05:27;;;;;;;;;;;;;;;9.89;97.18;100445.41;5093286;28;19923;-66
2023/10/23 02:08:31;;;;;;;;;;;;;;;9.75;98.49;100453.06;5092388;28;19927;-66
2023/10/23 02:11:34;;;;;;;;;;;;;;;9.76;98.75;100457.34;5093183;28;19927;-66
2023/10/23 02:14:37;;;;;;;;;;;;;;;9.81;97.83;100463.22;5093181;28;19923;-66
2023/10/23 02:17:40;;;;;;;;;;;;;;;9.83;97.54;100461.38;5093147;28;19923;-66
2023/10/23 02:20:44;;;;;;;;;;;;;;;9.81;97.40;100464.97;5093047;28;20453;-66
2023/10/23 02:23:46;;;;;;;;;;;;;;;9.78;97.66;100455.53;5092270;28;19922;-66
2023/10/23 02:26:49;;;;;;;;;;;;;;;9.77;97.74;100459.06;5092977;28;20299;-66
2023/10/23 02:29:52;;;;;;;;;;;;;;;9.81;97.71;100457.16;5091877;28;19927;-66
2023/10/23 02:32:55;;;;;;;;;;;;;;;9.85;98.34;100458.66;5092113;28;19924;-66
2023/10/23 02:35:58;;;;;;;;;;;;;;;9.84;98.60;100457.00;5092808;28;19969;-67
2023/10/23 02:39:01;;;;;;;;;;;;;;;9.83;98.86;100465.72;5091970;28;19968;-66
2023/10/23 02:42:05;;;;;;;;;;;;;;;9.76;99.68;100473.03;5092767;28;19927;-66
2023/10/23 02:45:08;;;;;;;;;;;;;;;9.77;99.07;100469.50;5092997;28;19974;-66
2023/10/23 02:48:12;;;;;;;;;;;;;;;9.77;98.99;100467.75;5096990;28;20010;-66
2023/10/23 02:51:14;;;;;;;;;;;;;;;9.73;99.72;100465.34;5096026;28;19970;-66
2023/10/23 02:54:18;;;;;;;;;;;;;;;9.75;99.68;100464.34;5096840;28;19927;-66
2023/10/23 02:57:21;;;;;;;;;;;;;;;9.66;99.83;100459.56;5096760;28;20414;-66
2023/10/23 03:00:24;;;;;;;;;;;;;;;9.68;99.87;100462.13;5096685;28;20379;-66
2023/10/23 03:03:27;;;;;;;;;;;;;;;9.69;100.00;100469.03;5096909;28;19923;-66
2023/10/23 03:06:30;;;;;;;;;;;;;;;9.68;99.53;100472.56;5096572;28;19959;-66
2023/10/23 03:09:35;;;;;;;;;;;;;;;9.70;99.05;100476.81;5096888;28;19923;-66
2023/10/23 03:12:38;;;;;;;;;;;;;;;9.72;99.37;100480.16;5096494;28;19969;-65
2023/10/23 03:15:42;;;;;;;;;;;;;;;9.67;100.00;100487.41;5096580;28;20091;-66
2023/10/23 03:18:45;;;;;;;;;;;;;;;9.65;100.00;100484.00;5096490;28;20319;-66
2023/10/23 03:21:48;;;;;;;;;;;;;;;9.65;99.96;100484.00;5095725;28;19946;-66
2023/10/23 03:24:51;;;;;;;;;;;;;;;9.58;99.87;100492.22;5096288;28;19923;-66
2023/10/23 03:27:54;;;;;;;;;;;;;;;9.53;100.00;100487.22;5096230;28;19931;-66
2023/10/23 03:31:03;;;;;;;;;;;;;;;9.49;100.00;100486.53;5095297;28;19928;-66
2023/10/23 03:34:07;;;;;;;;;;;;;;;9.50;100.00;100493.41;5095344;28;19923;-66
2023/10/23 03:37:10;;;;;;;;;;;;;;;9.57;100.00;100493.13;5096141;28;20287;-66
2023/10/23 03:40:13;;;;;;;;;;;;;;;9.60;99.79;100485.16;5095995;28;19973;-66
2023/10/23 03:43:16;;;;;;;;;;;;;;;9.50;99.41;100482.97;5095961;28;20291;-66
2023/10/23 03:46:19;;;;;;;;;;;;;;;9.48;99.34;100487.44;5095922;28;19927;-66
2023/10/23 03:49:22;;;;;;;;;;;;;;;9.48;98.86;100490.06;5095879;28;19923;-66
2023/10/23 03:52:25;;;;;;;;;;;;;;;9.48;98.98;100482.22;5095817;28;20303;-66
2023/10/23 03:55:28;;;;;;;;;;;;;;;9.43;98.58;100484.19;5095627;28;19938;-66
2023/10/23 03:58:31;;;;;;;;;;;;;;;9.32;98.56;100481.28;5094861;28;19923;-66
2023/10/23 04:01:34;;;;;;;;;;;;;;;9.41;98.64;100480.84;5095552;28;20045;-66
2023/10/23 04:04:38;;;;;;;;;;;;;;;9.37;99.08;100489.72;5095551;28;19923;-66
2023/10/23 04:07:42;;;;;;;;;;;;;;;9.32;98.89;100487.34;5095439;28;20016;-66
2023/10/23 04:10:46;;;;;;;;;;;;;;;9.40;98.48;100489.56;5095403;28;20046;-66
2023/10/23 04:13:50;;;;;;;;;;;;;;;9.41;98.21;100486.06;5095377;28;19923;-66
2023/10/23 04:16:52;;;;;;;;;;;;;;;9.43;98.55;100484.19;5095234;28;19923;-66
2023/10/23 04:19:55;;;;;;;;;;;;;;;9.48;98.12;100482.22;5095109;28;19927;-66
2023/10/23 04:22:58;;;;;;;;;;;;;;;9.46;98.56;100471.00;5095113;28;20330;-66
2023/10/23 04:26:01;;;;;;;;;;;;;;;9.31;99.33;100479.56;5094475;28;20325;-66
2023/10/23 04:29:05;;;;;;;;;;;;;;;9.29;99.34;100481.41;5094865;28;19927;-66
2023/10/23 04:32:08;;;;;;;;;;;;;;;9.29;99.76;100481.41;5095060;28;20433;-66
2023/10/23 04:35:11;;;;;;;;;;;;;;;9.29;99.54;100478.81;5094906;28;19931;-66
2023/10/23 04:38:14;;;;;;;;;;;;;;;9.31;99.11;100485.63;5094875;28;19923;-66
2023/10/23 04:41:19;;;;;;;;;;;;;;;9.36;98.86;100480.19;5094830;28;19927;-66
2023/10/23 04:44:22;;;;;;;;;;;;;;;9.33;98.63;100485.56;5094057;28;19923;-66
2023/10/23 04:47:26;;;;;;;;;;;;;;;9.42;97.77;100474.69;5094817;28;19939;-66
2023/10/23 04:50:35;;;;;;;;;;;;;;;9.33;97.47;100480.34;5094639;28;19969;-66
2023/10/23 04:53:38;;;;;;;;;;;;;;;9.32;97.13;100476.06;5094906;28;19923;-66
2023/10/23 04:56:41;;;;;;;;;;;;;;;9.27;97.26;100478.88;5094524;28;19960;-66
2023/10/23 04:59:44;;;;;;;;;;;;;;;9.25;97.36;100482.47;5094404;28;19974;-66
2023/10/23 05:02:46;;;;;;;;;;;;;;;9.10;98.35;100491.03;5094438;28;19958;-66
2023/10/23 05:05:51;;;;;;;;;;;;;;;8.99;98.34;100494.97;5094690;28;19923;-66
2023/10/23 05:08:54;;;;;;;;;;;;;;;8.98;98.27;100490.66;5093309;28;20331;-66
2023/10/23 05:11:57;;;;;;;;;;;;;;;8.96;98.11;100494.25;5091608;28;19974;-66
2023/10/23 05:15:00;;;;;;;;;;;;;;;8.99;98.74;100497.56;5092137;28;19927;-66
2023/10/23 05:18:05;;;;;;;;;;;;;;;9.05;97.62;100493.84;5092894;28;19927;-66
2023/10/23 05:21:09;;;;;;;;;;;;;;;9.02;97.42;100488.75;5092892;28;19927;-65
2023/10/23 05:24:13;;;;;;;;;;;;;;;8.95;97.78;100493.41;5073785;28;20010;-65
2023/10/23 05:27:17;;;;;;;;;;;;;;;8.96;97.86;100496.88;5073576;28;19970;-66
2023/10/23 05:30:20;;;;;;;;;;;;;;;8.90;97.30;100490.16;5073390;28;19973;-65
2023/10/23 05:33:24;;;;;;;;;;;;;;;8.75;97.94;100491.72;5073592;28;19979;-65
2023/10/23 05:36:27;;;;;;;;;;;;;;;8.68;98.95;100473.81;5072572;28;19931;-65
2023/10/23 05:39:30;;;;;;;;;;;;;;;8.70;99.47;100491.06;5072180;28;19927;-65
2023/10/23 05:42:33;;;;;;;;;;;;;;;8.62;99.45;100490.59;5073501;28;20014;-65
2023/10/23 05:45:36;;;;;;;;;;;;;;;8.71;99.17;100490.19;5073296;28;19922;-64
2023/10/23 05:48:39;;;;;;;;;;;;;;;8.79;99.47;100488.06;5073519;28;19950;-65
2023/10/23 05:51:43;;;;;;;;;;;;;;;8.74;99.58;100492.66;5073584;28;20857;-65
2023/10/23 05:54:46;;;;;;;;;;;;;;;8.83;100.00;100488.75;5072054;28;19999;-65
2023/10/23 05:57:49;;;;;;;;;;;;;;;8.73;100.00;100496.16;5072723;28;20016;-65
2023/10/23 06:00:51;;;;;;;;;;;;;;;8.82;100.00;100497.50;5072735;28;19946;-64
2023/10/23 06:03:54;;;;;;;;;;;;;;;8.84;99.54;100496.53;5071222;28;19996;-64
2023/10/23 06:06:59;;;;;;;;;;;;;;;8.86;98.40;100506.88;5069190;28;19981;-64
2023/10/23 06:10:03;;;;;;;;;;;;;;;8.79;98.55;100502.88;5070164;28;20332;-64
2023/10/23 06:13:06;;;;;;;;;;;;;;;8.82;98.36;100510.53;5070455;28;19931;-64
2023/10/23 06:16:10;;;;;;;;;;;;;;;8.84;97.60;100506.13;5071023;28;19978;-64
2023/10/23 06:19:13;;;;;;;;;;;;;;;8.86;96.77;100512.09;5071196;28;19962;-64
2023/10/23 06:22:15;;;;;;;;;;;;;;;8.86;96.69;100504.28;5071165;28;19977;-65
2023/10/23 06:25:18;;;;;;;;;;;;;;;8.87;96.69;100503.38;5071163;28;20029;-65
2023/10/23 06:28:21;;;;;;;;;;;;;;;8.86;96.46;100504.28;5071140;28;19925;-65
2023/10/23 06:31:26;;;;;;;;;;;;;;;8.79;97.23;100508.91;5030535;28;20609;-65
2023/10/23 06:34:31;;;;;;;;;;;;;;;8.80;97.23;100510.59;5031445;28;19924;-65
2023/10/23 06:37:34;;;;;;;;;;;;;;;8.74;97.25;100520.47;5031587;28;19982;-65
2023/10/23 06:40:37;;;;;;;;;;;;;;;8.73;97.86;100510.94;5029484;28;20377;-65
2023/10/23 06:43:41;;;;;;;;;;;;;;;8.82;97.16;100518.38;5030862;28;19923;-68
2023/10/23 06:46:44;;;;;;;;;;;;;;;8.93;96.79;100515.25;5032539;28;20047;-66
2023/10/23 06:49:47;;;;;;;;;;;;;;;8.91;96.53;100517.97;5050758;28;20256;-66
2023/10/23 06:52:50;;;;;;;;;;;;;;;8.87;96.25;100526.84;5051097;28;19970;-67
2023/10/23 06:55:54;;;;;;;;;;;;;;;8.86;97.37;100519.91;5051792;28;19927;-66
2023/10/23 06:58:58;;;;;;;;;;;;;;;8.83;97.35;100525.25;5051105;28;19928;-66
2023/10/23 07:02:01;;;;;;;;;;;;;;;8.82;97.43;100519.22;5051248;28;19931;-66
2023/10/23 07:05:07;;;;;;;;;;;;;;;8.78;97.66;100527.25;5051814;28;19928;-66
2023/10/23 07:08:15;;;;;;;;;;;;;;;8.86;97.15;100525.13;5051338;28;20360;-68
2023/10/23 07:11:23;;;;;;;;;;;;;;;8.90;97.16;100523.22;5051443;28;20351;-65
2023/10/23 07:14:34;;;;;;;;;;;;;;;8.93;96.32;100516.09;5051662;28;20427;-65
2023/10/23 07:17:37;;;;;;;;;;;;;;;8.98;96.79;100521.13;5062211;28;19923;-63
2023/10/23 07:20:40;;;;;;;;;;;;;;;8.96;97.03;100520.34;5050776;28;20012;-64
2023/10/23 07:23:44;;;;;;;;;;;;;;;8.94;97.88;100520.41;5051119;28;19973;-64
2023/10/23 07:26:47;;;;;;;;;;;;;;;8.96;97.18;100513.34;5050887;28;19947;-65
2023/10/23 07:29:50;;;;;;;;;;;;;;;8.86;97.99;100522.53;5064287;28;19927;-65
2023/10/23 07:32:53;;;;;;;;;;;;;;;8.85;99.07;100523.44;5092488;28;19939;-65
2023/10/23 07:36:00;;;;;;;;;;;;;;;8.92;97.91;100513.59;5094932;28;20333;-66
2023/10/23 07:39:03;;;;;;;;;;;;;;;8.96;97.26;100510.75;5095065;28;19927;-63
2023/10/23 07:42:06;;;;;;;;;;;;;;;9.02;97.53;100499.19;5094582;28;20336;-65
2023/10/23 07:45:09;;;;;;;;;;;;;;;8.96;98.48;100505.53;5094718;28;19923;-65
2023/10/23 07:48:23;;;;;;;;;;;;;;;9.08;97.14;100497.16;5094546;28;19969;-66
2023/10/23 07:51:27;;;;;;;;;;;;;;;9.02;96.35;100493.97;5094849;28;20069;-66
2023/10/23 07:54:33;;;;;;;;;;;;;;;9.11;96.77;100487.50;5094660;28;19942;-66
2023/10/23 07:57:36;;;;;;;;;;;;;;;9.19;96.69;100490.56;5094155;28;20335;-66
2023/10/23 08:00:39;;;;;;;;;;;;;;;9.26;96.44;100490.22;5094661;28;20477;-66
2023/10/23 08:03:46;;;;;;;;;;;;;;;9.22;95.85;100485.22;5094698;28;20038;-66
2023/10/23 08:06:49;;;;;;;;;;;;;;;9.29;95.88;100484.03;5094385;28;19961;-66
2023/10/23 08:09:52;;;;;;;;;;;;;;;9.38;96.04;100481.00;5094378;28;19985;-67
2023/10/23 08:12:55;;;;;;;;;;;;;;;9.41;97.12;100486.06;5092744;28;20374;-66
2023/10/23 08:15:58;;;;;;;;;;;;;;;9.39;98.53;100477.44;5093095;28;20393;-67
2023/10/23 08:19:02;;;;;;;;;;;;;;;9.44;98.19;100488.50;5093117;28;20026;-66
2023/10/23 08:22:05;;;;;;;;;;;;;;;9.22;98.15;100474.78;5094122;28;20272;-66
2023/10/23 08:25:08;;;;;;;;;;;;;;;9.19;99.34;100474.91;5094227;28;20013;-66
2023/10/23 08:28:11;;;;;;;;;;;;;;;9.21;99.57;100480.94;5094014;28;19962;-67
2023/10/23 08:31:15;;;;;;;;;;;;;;;9.17;100.00;100472.41;5093899;28;20011;-66
2023/10/23 08:34:21;;;;;;;;;;;;;;;9.34;100.00;100465.53;5094056;28;20395;-65
2023/10/23 08:37:24;;;;;;;;;;;;;;;9.22;100.00;100467.81;5093636;28;19930;-66
2023/10/23 08:40:28;;;;;;;;;;;;;;;9.34;100.00;100471.59;5093480;28;19986;-66
2023/10/23 08:43:32;;;;;;;;;;;;;;;9.52;100.00;100472.47;5093434;28;19923;-67
2023/10/23 08:46:36;;;;;;;;;;;;;;;9.72;100.00;100479.31;5093461;28;19939;-65
2023/10/23 08:49:39;;;;;;;;;;;;;;;9.84;99.62;100477.88;5093411;28;19922;-67
2023/10/23 08:52:55;;;;;;;;;;;;;;;9.89;98.95;100470.63;5093296;28;19923;-65
2023/10/23 09:00:16;;;;;;;;;;;;;;;10.19;98.41;100463.03;5092104;28;20390;-65
2023/10/23 09:03:20;;;;;;;;;;;;;;;10.16;98.76;100458.81;5093065;28;19927;-65
2023/10/23 09:06:23;;;;;;;;;;;;;;;10.21;98.58;100450.72;5093050;28;19939;-65
2023/10/23 09:09:26;;;;;;;;;;;;;;;9.93;100.00;100459.16;5093200;28;19973;-65
2023/10/23 09:12:35;;;;;;;;;;;;;;;9.95;100.00;100454.66;5092986;28;19989;-65
2023/10/23 09:15:48;;;;;;;;;;;;;;;10.06;100.00;100452.38;5092829;28;19923;-65
2023/10/23 09:18:51;;;;;;;;;;;;;;;10.18;100.00;100445.69;5092919;28;19976;-65
2023/10/23 09:21:58;;;;;;;;;;;;;;;10.25;99.50;100442.66;5093058;28;19930;-65
2023/10/23 09:25:01;;;;;;;;;;;;;;;10.27;99.13;100434.75;5092949;28;19923;-65
2023/10/23 09:28:11;;;;;;;;;;;;;;;10.30;99.36;100434.59;5092619;28;20386;-65
2023/10/23 09:31:14;;;;;;;;;;;;;;;10.38;98.70;100432.44;5092454;28;20340;-65
2023/10/23 09:34:18;;;;;;;;;;;;;;;10.27;99.18;100424.28;5092657;28;19923;-65
2023/10/23 09:37:23;;;;;;;;;;;;;;;10.42;98.64;100428.72;5092356;28;19943;-65
2023/10/23 09:40:26;;;;;;;;;;;;;;;10.51;98.31;100413.47;5092379;28;19927;-65
2023/10/23 09:43:29;;;;;;;;;;;;;;;10.58;97.80;100417.44;5092245;28;19984;-65
2023/10/23 09:46:33;;;;;;;;;;;;;;;10.46;97.37;100409.34;5092655;28;19965;-65
2023/10/23 09:49:38;;;;;;;;;;;;;;;10.63;96.72;100407.59;5092205;28;19978;-65
2023/10/23 09:52:43;;;;;;;;;;;;;;;10.52;97.55;100413.38;5092459;28;19923;-65
2023/10/23 09:55:48;;;;;;;;;;;;;;;10.71;96.80;100414.06;5091778;28;19923;-65
2023/10/23 09:58:58;;;;;;;;;;;;;;;10.79;97.12;100407.59;5092089;28;20501;-65
2023/10/23 10:02:01;;;;;;;;;;;;;;;10.90;95.96;100416.53;5092187;28;20351;-65
2023/10/23 10:05:06;;;;;;;;;;;;;;;10.87;96.45;100413.25;5092043;28;19961;-65
2023/10/23 10:08:17;;;;;;;;;;;;;;;10.99;95.95;100403.88;5092102;28;19954;-65
2023/10/23 10:11:21;;;;;;;;;;;;;;;11.03;95.43;100408.84;5091910;28;19997;-65
2023/10/23 10:14:25;;;;;;;;;;;;;;;10.99;94.47;100396.03;5090993;28;19986;-65
2023/10/23 10:17:28;;;;;;;;;;;;;;;10.80;95.64;100391.81;5092048;28;19939;-65
2023/10/23 10:20:31;;;;;;;;;;;;;;;10.86;96.86;100394.09;5091700;28;19927;-64
2023/10/23 10:23:35;;;;;;;;;;;;;;;10.97;95.91;100403.09;5091899;28;19927;-65
2023/10/23 10:26:39;;;;;;;;;;;;;;;10.98;95.51;100391.72;5091814;28;19923;-65
2023/10/23 10:29:42;;;;;;;;;;;;;;;10.98;96.02;100394.34;5091730;28;20065;-65
2023/10/23 10:32:45;;;;;;;;;;;;;;;11.06;95.12;100385.13;5091609;28;19923;-65
2023/10/23 10:35:50;;;;;;;;;;;;;;;11.08;94.70;100377.19;5091681;28;19923;-65
2023/10/23 10:38:53;;;;;;;;;;;;;;;11.17;94.45;100369.66;5090844;28;20393;-65
2023/10/23 10:41:58;;;;;;;;;;;;;;;11.20;94.52;100370.41;5091617;28;19927;-65
2023/10/23 10:45:14;;;;;;;;;;;;;;;11.29;94.67;100369.88;5091910;28;20007;-65
2023/10/23 10:48:17;;;;;;;;;;;;;;;11.21;94.65;100364.25;5091573;28;19927;-65
2023/10/23 10:51:24;;;;;;;;;;;;;;;11.24;95.00;100359.69;5091567;28;19935;-65
2023/10/23 10:54:32;;;;;;;;;;;;;;;11.25;95.97;100355.28;5091386;28;19930;-65
2023/10/23 10:57:45;;;;;;;;;;;;;;;11.35;95.45;100354.66;5091502;28;19927;-65
2023/10/23 11:00:49;;;;;;;;;;;;;;;11.53;95.08;100347.50;5091524;28;19966;-65
2023/10/23 11:03:52;;;;;;;;;;;;;;;11.48;94.70;100339.06;5091503;28;19923;-65
2023/10/23 11:06:56;;;;;;;;;;;;;;;11.59;94.80;100333.22;5093419;28;20029;-65
2023/10/23 11:09:58;;;;;;;;;;;;;;;11.53;95.33;100328.34;5095395;28;19985;-65
2023/10/23 11:13:02;;;;;;;;;;;;;;;11.50;95.82;100323.28;5095622;28;19962;-65
2023/10/23 11:16:05;;;;;;;;;;;;;;;11.60;95.93;100320.03;5095355;28;19969;-64
2023/10/23 11:19:08;;;;;;;;;;;;;;;11.31;98.40;100315.66;5095667;28;20022;-65
2023/10/23 11:22:12;;;;;;;;;;;;;;;11.79;95.91;100309.28;5095105;28;19931;-65
2023/10/23 11:25:15;;;;;;;;;;;;;;;12.01;94.58;100293.13;5095200;28;20008;-65
2023/10/23 11:28:19;;;;;;;;;;;;;;;11.80;94.07;100278.69;5094901;28;19962;-65
2023/10/23 11:31:22;;;;;;;;;;;;;;;11.80;97.00;100269.03;5095037;28;19938;-65
2023/10/23 11:34:25;;;;;;;;;;;;;;;12.05;95.58;100265.78;5095077;28;19924;-65
2023/10/23 11:37:31;;;;;;;;;;;;;;;12.16;96.40;100262.50;5095152;28;20011;-65
2023/10/23 11:40:34;;;;;;;;;;;;;;;12.29;95.16;100255.53;5094780;28;19927;-65
2023/10/23 11:43:38;;;;;;;;;;;;;;;11.78;97.12;100254.38;5094973;28;19923;-65
2023/10/23 11:46:41;;;;;;;;;;;;;;;12.05;96.61;100241.34;5094900;28;19974;-65
2023/10/23 11:49:48;;;;;;;;;;;;;;;11.98;98.29;100245.31;5094815;28;19966;-65
2023/10/23 11:52:51;;;;;;;;;;;;;;;12.31;97.50;100237.91;5094765;28;19923;-65
2023/10/23 11:55:56;;;;;;;;;;;;;;;12.23;97.28;100239.38;5094516;28;19970;-65
2023/10/23 11:59:00;;;;;;;;;;;;;;;12.47;96.64;100236.94;5094690;28;19962;-65
2023/10/23 12:02:03;;;;;;;;;;;;;;;12.28;97.86;100224.16;5094536;28;19928;-65
2023/10/23 12:05:10;;;;;;;;;;;;;;;12.34;96.65;100223.78;5094832;28;20407;-65
2023/10/23 12:08:13;;;;;;;;;;;;;;;12.65;96.72;100212.13;5094577;28;19965;-65
2023/10/23 12:11:17;;;;;;;;;;;;;;;12.67;96.69;100210.25;5094424;28;19930;-65
2023/10/23 12:14:20;;;;;;;;;;;;;;;12.56;98.02;100203.09;5094330;28;20359;-65
2023/10/23 12:17:23;;;;;;;;;;;;;;;12.69;97.02;100194.41;5094559;28;19969;-65
2023/10/23 12:20:26;;;;;;;;;;;;;;;12.63;97.47;100195.66;5094091;28;19928;-65
2023/10/23 12:23:29;;;;;;;;;;;;;;;12.69;97.24;100191.78;5094554;28;20279;-65
2023/10/23 12:26:33;;;;;;;;;;;;;;;12.67;97.76;100191.91;5094244;28;19973;-65
2023/10/23 12:29:35;;;;;;;;;;;;;;;12.77;97.27;100182.47;5093941;28;19928;-65
2023/10/23 12:32:41;;;;;;;;;;;;;;;12.77;97.10;100177.22;5094004;28;20437;-65
2023/10/23 12:35:44;;;;;;;;;;;;;;;12.83;97.00;100173.34;5093959;28;19927;-65
2023/10/23 12:38:47;;;;;;;;;;;;;;;12.87;96.76;100172.19;5093967;28;19927;-65
2023/10/23 12:41:50;;;;;;;;;;;;;;;12.85;96.97;100168.00;5094257;28;19970;-65
2023/10/23 12:44:54;;;;;;;;;;;;;;;12.86;97.71;100153.91;5093681;28;20415;-65
2023/10/23 12:47:57;;;;;;;;;;;;;;;12.88;98.03;100152.88;5093781;28;19969;-65
2023/10/23 12:51:00;;;;;;;;;;;;;;;12.87;97.69;100140.72;5093597;28;20047;-65
2023/10/23 12:54:03;;;;;;;;;;;;;;;12.91;97.57;100131.69;5093597;28;19942;-65
2023/10/23 12:57:07;;;;;;;;;;;;;;;12.82;97.90;100131.47;5093744;28;19922;-65
2023/10/23 13:00:13;;;;;;;;;;;;;;;12.75;98.96;100128.41;5093606;28;19927;-65
2023/10/23 13:03:16;;;;;;;;;;;;;;;12.78;99.40;100115.94;5093429;28;19931;-65
2023/10/23 13:06:19;;;;;;;;;;;;;;;12.77;99.43;100122.13;5093243;28;19931;-65
2023/10/23 13:09:22;;;;;;;;;;;;;;;12.73;99.61;100107.56;5093292;28;20026;-65
2023/10/23 13:12:25;;;;;;;;;;;;;;;12.83;99.33;100107.75;5093161;28;20441;-65
2023/10/23 13:15:28;;;;;;;;;;;;;;;12.92;99.29;100101.03;5093346;28;20398;-65
2023/10/23 13:18:30;;;;;;;;;;;;;;;12.86;99.10;100085.69;5092912;28;20391;-65
2023/10/23 13:21:34;;;;;;;;;;;;;;;12.95;99.00;100077.19;5093042;28;19945;-65
2023/10/23 13:24:36;;;;;;;;;;;;;;;13.01;98.75;100066.28;5092756;28;19922;-65
2023/10/23 13:27:40;;;;;;;;;;;;;;;13.00;99.00;100059.34;5092911;28;19930;-65
2023/10/23 13:30:43;;;;;;;;;;;;;;;13.00;99.19;100041.81;5091762;28;19927;-65
2023/10/23 13:33:46;;;;;;;;;;;;;;;13.02;99.47;100036.47;5092804;28;20437;-65
2023/10/23 13:36:49;;;;;;;;;;;;;;;13.00;99.76;100022.63;5092814;28;19976;-65
2023/10/23 13:39:52;;;;;;;;;;;;;;;13.06;100.00;100014.31;5092622;28;19985;-65
2023/10/23 13:42:55;;;;;;;;;;;;;;;13.09;99.04;100008.84;5092893;28;19923;-65
2023/10/23 13:45:58;;;;;;;;;;;;;;;13.01;99.67;100006.75;5092459;28;19923;-65
2023/10/23 13:49:02;;;;;;;;;;;;;;;13.12;99.63;99998.13;5092739;28;19923;-65
2023/10/23 13:52:04;;;;;;;;;;;;;;;13.19;99.55;99983.59;5092616;28;19927;-65
2023/10/23 13:55:08;;;;;;;;;;;;;;;13.19;100.00;99991.47;5092409;28;19923;-65
2023/10/23 13:58:11;;;;;;;;;;;;;;;13.15;100.00;99982.16;5092329;28;19923;-65
2023/10/23 14:01:14;;;;;;;;;;;;;;;13.11;100.00;99971.97;5092200;28;19927;-65
2023/10/23 14:04:17;;;;;;;;;;;;;;;13.10;99.41;99962.44;5092354;28;19922;-65
2023/10/23 14:07:20;;;;;;;;;;;;;;;13.12;98.58;99958.75;5092576;28;19926;-65
2023/10/23 14:10:23;;;;;;;;;;;;;;;13.10;97.39;99947.50;5092044;28;20304;-65
2023/10/23 14:13:26;;;;;;;;;;;;;;;13.09;98.51;99951.09;5092115;28;19989;-65
2023/10/23 14:16:28;;;;;;;;;;;;;;;12.94;99.84;99973.19;5092108;28;19923;-65
2023/10/23 14:19:32;;;;;;;;;;;;;;;12.81;97.77;99975.84;5091754;28;20424;-65
2023/10/23 14:22:38;;;;;;;;;;;;;;;12.74;98.66;99972.81;5092050;28;19970;-65
2023/10/23 14:25:42;;;;;;;;;;;;;;;12.76;98.90;99960.44;5092041;28;19923;-65
2023/10/23 14:28:44;;;;;;;;;;;;;;;12.87;98.37;99956.19;5091916;28;19978;-65
2023/10/23 14:31:48;;;;;;;;;;;;;;;12.90;98.70;99951.56;5091882;28;19927;-65
2023/10/23 14:34:50;;;;;;;;;;;;;;;12.79;98.20;99944.47;5091984;28;20299;-65
2023/10/23 14:37:54;;;;;;;;;;;;;;;12.71;97.18;99936.28;5091801;28;19942;-65
2023/10/23 14:41:01;;;;;;;;;;;;;;;12.84;96.72;99930.19;5090638;28;19974;-65
2023/10/23 14:44:05;;;;;;;;;;;;;;;12.85;98.66;99921.34;5091768;28;19970;-65
2023/10/23 14:47:09;;;;;;;;;;;;;;;12.83;98.50;99918.00;5090610;28;19923;-65
2023/10/23 14:50:11;;;;;;;;;;;;;;;12.88;97.70;99903.59;5091823;28;20343;-65
2023/10/23 14:53:15;;;;;;;;;;;;;;;12.85;97.80;99900.38;5091635;28;19923;-65
2023/10/23 14:56:17;;;;;;;;;;;;;;;12.82;98.41;99897.97;5091371;28;19922;-65
2023/10/23 14:59:23;;;;;;;;;;;;;;;12.80;98.73;99892.84;5091623;28;19927;-65
2023/10/23 15:02:26;;;;;;;;;;;;;;;12.86;98.92;99879.28;5091626;28;19927;-65
2023/10/23 15:05:29;;;;;;;;;;;;;;;12.87;98.60;99867.00;5091589;28;20008;-65
2023/10/23 15:08:32;;;;;;;;;;;;;;;12.86;98.55;99860.06;5091450;28;19942;-65
2023/10/23 15:11:35;;;;;;;;;;;;;;;12.87;97.96;99857.34;5091601;28;19969;-65
2023/10/23 15:14:38;;;;;;;;;;;;;;;12.82;98.25;99869.94;5091291;28;19962;-65
2023/10/23 15:17:41;;;;;;;;;;;;;;;12.68;99.06;99868.31;5091550;28;20363;-65
2023/10/23 15:20:44;;;;;;;;;;;;;;;12.57;100.00;99860.34;5091632;28;19931;-65
2023/10/23 15:23:47;;;;;;;;;;;;;;;12.65;100.00;99871.16;5091587;28;20398;-65
2023/10/23 15:26:50;;;;;;;;;;;;;;;12.47;100.00;99875.91;5091985;28;19970;-65
2023/10/23 15:29:53;;;;;;;;;;;;;;;12.36;100.00;99877.63;5091058;28;19927;-65
2023/10/23 15:32:56;;;;;;;;;;;;;;;12.49;100.00;99874.03;5091485;28;19977;-65
2023/10/23 15:36:00;;;;;;;;;;;;;;;12.50;100.00;99859.94;5091245;28;19969;-65
2023/10/23 15:39:03;;;;;;;;;;;;;;;12.41;100.00;99860.63;5091113;28;20382;-65
2023/10/23 15:42:06;;;;;;;;;;;;;;;12.47;100.00;99847.06;5091074;28;19927;-65
2023/10/23 15:45:09;;;;;;;;;;;;;;;12.48;100.00;99847.94;5091093;28;19927;-65
2023/10/23 15:48:15;;;;;;;;;;;;;;;12.44;100.00;99856.94;5091008;28;19923;-65
2023/10/23 15:51:18;;;;;;;;;;;;;;;12.45;100.00;99856.00;5090923;28;20398;-65
2023/10/23 15:54:21;;;;;;;;;;;;;;;12.34;100.00;99862.81;5092912;28;19970;-65
2023/10/23 15:57:24;;;;;;;;;;;;;;;12.42;100.00;99864.09;5094551;28;20006;-65